createdAt,value
2022-09-12T00:02:39.912Z,14.60
2022-09-12T00:07:41.600Z,14.60
2022-09-12T00:12:43.334Z,14.50
2022-09-12T00:17:45.056Z,14.50
2022-09-12T00:22:46.851Z,14.40
2022-09-12T00:27:48.668Z,14.30
2022-09-12T00:32:51.504Z,14.20
2022-09-12T00:37:53.185Z,14.10
2022-09-12T00:42:54.864Z,14.10
2022-09-12T00:48:00.741Z,14.10
2022-09-12T00:53:06.400Z,13.90
2022-09-12T00:58:17.045Z,13.90
2022-09-12T01:03:22.037Z,13.80
2022-09-12T01:08:25.828Z,13.80
2022-09-12T01:13:28.762Z,13.70
2022-09-12T01:18:57.028Z,13.70
2022-09-12T01:24:26.461Z,13.70
2022-09-12T01:29:56.543Z,13.60
2022-09-12T01:34:58.152Z,13.60
2022-09-12T01:40:23.291Z,13.60
2022-09-12T01:45:33.760Z,13.50
2022-09-12T01:50:44.054Z,13.50
2022-09-12T01:55:51.375Z,13.50
2022-09-12T02:01:04.908Z,13.50
2022-09-12T02:06:19.289Z,13.50
2022-09-12T02:11:21.667Z,13.50
2022-09-12T02:16:34.201Z,13.40
2022-09-12T02:21:39.912Z,13.40
2022-09-12T02:26:47.984Z,13.40
2022-09-12T02:31:59.944Z,13.30
2022-09-12T02:37:05.928Z,13.30
2022-09-12T02:42:07.837Z,13.30
2022-09-12T02:47:29.863Z,13.20
2022-09-12T02:52:32.126Z,13.20
2022-09-12T02:57:33.920Z,13.20
2022-09-12T03:02:57.638Z,13.10
2022-09-12T03:08:15.916Z,13.00
2022-09-12T03:13:26.815Z,12.90
2022-09-12T03:18:28.464Z,12.90
2022-09-12T03:23:40.663Z,12.90
2022-09-12T03:28:45.449Z,12.90
2022-09-12T03:33:47.236Z,12.80
2022-09-12T03:38:48.965Z,12.80
2022-09-12T03:43:50.717Z,12.70
2022-09-12T03:48:52.487Z,12.80
2022-09-12T03:53:54.496Z,12.80
2022-09-12T03:58:56.216Z,12.70
2022-09-12T04:03:57.959Z,12.70
2022-09-12T04:08:59.845Z,12.70
2022-09-12T04:14:01.649Z,12.70
2022-09-12T04:19:03.688Z,12.70
2022-09-12T04:24:05.589Z,12.60
2022-09-12T04:29:12.677Z,12.70
2022-09-12T04:34:15.524Z,12.60
2022-09-12T04:39:17.261Z,12.70
2022-09-12T04:44:18.992Z,12.70
2022-09-12T04:49:20.795Z,12.60
2022-09-12T04:54:22.493Z,12.60
2022-09-12T04:59:24.307Z,12.60
2022-09-12T05:04:26.067Z,12.60
2022-09-12T05:09:27.812Z,12.60
2022-09-12T05:14:29.778Z,12.60
2022-09-12T05:19:33.563Z,12.70
2022-09-12T05:24:35.516Z,12.70
2022-09-12T05:29:37.211Z,12.80
2022-09-12T05:34:40.152Z,12.80
2022-09-12T05:39:41.877Z,12.80
2022-09-12T05:44:43.595Z,12.80
2022-09-12T05:49:47.897Z,12.90
2022-09-12T05:54:49.678Z,13.00
2022-09-12T05:59:51.478Z,13.10
2022-09-12T06:04:53.260Z,13.10
2022-09-12T06:09:55.065Z,13.30
2022-09-12T06:14:56.997Z,13.40
2022-09-12T06:19:59.452Z,13.50
2022-09-12T06:25:01.275Z,13.50
2022-09-12T06:30:03.231Z,13.60
2022-09-12T06:35:05.520Z,13.80
2022-09-12T06:40:08.506Z,13.90
2022-09-12T06:45:11.502Z,14.10
2022-09-12T06:50:13.361Z,14.20
2022-09-12T06:55:19.466Z,14.30
2022-09-12T07:00:22.090Z,14.50
2022-09-12T07:05:23.805Z,14.60
2022-09-12T07:10:25.588Z,14.80
2022-09-12T07:15:27.423Z,15.00
2022-09-12T07:20:29.701Z,15.00
2022-09-12T07:25:31.412Z,15.10
2022-09-12T07:30:33.189Z,15.20
2022-09-12T07:35:35.128Z,15.40
2022-09-12T07:40:36.833Z,15.60
2022-09-12T07:45:41.765Z,15.80
2022-09-12T07:50:45.203Z,15.90
2022-09-12T07:55:56.292Z,16.00
2022-09-12T08:01:05.786Z,16.10
2022-09-12T08:06:15.682Z,16.30
2022-09-12T08:11:20.032Z,16.40
2022-09-12T08:16:24.096Z,16.50
2022-09-12T08:21:31.133Z,16.70
2022-09-12T08:26:34.670Z,16.80
2022-09-12T08:31:37.004Z,16.90
2022-09-12T08:36:38.746Z,17.10
2022-09-12T08:41:45.758Z,17.10
2022-09-12T08:47:18.402Z,17.20
2022-09-12T08:52:26.538Z,17.20
2022-09-12T08:57:28.445Z,17.60
2022-09-12T09:02:53.335Z,17.80
2022-09-12T09:08:22.695Z,17.80
2022-09-12T09:14:14.916Z,18.00
2022-09-12T09:19:25.232Z,18.10
2022-09-12T09:24:55.185Z,18.50
2022-09-12T09:29:57.407Z,18.80
2022-09-12T09:35:00.501Z,18.90
2022-09-12T09:40:14.297Z,18.60
2022-09-12T09:45:20.663Z,18.40
2022-09-12T09:50:22.468Z,18.50
2022-09-12T09:55:30.984Z,18.70
2022-09-12T10:00:35.225Z,19.00
2022-09-12T10:05:52.845Z,19.60
2022-09-12T10:11:17.393Z,19.60
2022-09-12T10:16:21.976Z,19.70
2022-09-12T10:21:41.344Z,19.70
2022-09-12T10:26:52.251Z,19.70
2022-09-12T10:31:59.398Z,19.70
2022-09-12T10:37:31.814Z,19.90
2022-09-12T10:42:54.585Z,19.80
2022-09-12T10:48:05.463Z,19.60
2022-09-12T10:53:34.494Z,19.80
2022-09-12T10:58:36.687Z,19.70
2022-09-12T11:04:05.203Z,19.70
2022-09-12T11:09:13.053Z,20.10
2022-09-12T11:14:28.986Z,20.90
2022-09-12T11:19:59.490Z,21.10
2022-09-12T11:25:07.195Z,20.90
2022-09-12T11:30:16.187Z,20.80
2022-09-12T11:35:29.474Z,20.40
2022-09-12T11:40:50.413Z,20.40
2022-09-12T11:45:53.263Z,20.90
2022-09-12T11:50:55.342Z,21.00
2022-09-12T11:56:09.356Z,21.60
2022-09-12T12:01:29.925Z,22.10
2022-09-12T12:06:35.733Z,22.40
2022-09-12T12:11:43.675Z,22.50
2022-09-12T12:16:46.258Z,22.70
2022-09-12T12:21:51.945Z,22.80
2022-09-12T12:26:57.356Z,22.20
2022-09-12T12:32:04.844Z,22.10
2022-09-12T12:37:22.069Z,22.10
2022-09-12T12:42:33.324Z,22.10
2022-09-12T12:47:37.848Z,23.00
2022-09-12T12:52:54.084Z,23.70
2022-09-12T12:58:03.570Z,23.70
2022-09-12T13:03:08.169Z,23.80
2022-09-12T13:08:32.294Z,24.10
2022-09-12T13:13:57.050Z,24.00
2022-09-12T13:19:04.546Z,24.30
2022-09-12T13:24:17.103Z,24.50
2022-09-12T13:29:23.563Z,24.70
2022-09-12T13:34:34.608Z,24.50
2022-09-12T13:40:05.799Z,24.70
2022-09-12T13:45:11.292Z,24.30
2022-09-12T13:50:28.154Z,23.80
2022-09-12T13:55:31.889Z,23.30
2022-09-12T14:00:35.044Z,23.10
2022-09-12T14:05:40.260Z,23.70
2022-09-12T14:10:44.389Z,23.90
2022-09-12T14:15:50.156Z,24.00
2022-09-12T14:20:54.105Z,24.20
2022-09-12T14:25:59.043Z,24.20
2022-09-12T14:31:15.684Z,24.20
2022-09-12T14:36:32.570Z,24.10
2022-09-12T14:41:40.765Z,24.00
2022-09-12T14:46:44.407Z,23.40
2022-09-12T14:51:51.904Z,23.60
2022-09-12T14:57:39.352Z,23.50
2022-09-12T15:02:44.730Z,23.40
2022-09-12T15:07:56.699Z,23.20
2022-09-12T15:13:10.847Z,23.00
2022-09-12T15:18:13.709Z,22.90
2022-09-12T15:23:40.142Z,22.70
2022-09-12T15:28:42.154Z,22.50
2022-09-12T15:33:43.970Z,22.40
2022-09-12T15:38:47.351Z,22.20
2022-09-12T15:43:50.538Z,22.10
2022-09-12T15:48:52.264Z,22.10
2022-09-12T15:53:54.098Z,21.90
2022-09-12T15:59:00.228Z,21.70
2022-09-12T16:04:03.330Z,21.60
2022-09-12T16:09:05.025Z,21.60
2022-09-12T16:14:06.807Z,21.50
2022-09-12T16:19:09.979Z,21.50
2022-09-12T16:24:11.754Z,21.30
2022-09-12T16:29:14.467Z,21.20
2022-09-12T16:34:16.181Z,21.10
2022-09-12T16:39:17.912Z,21.00
2022-09-12T16:44:19.976Z,20.90
2022-09-12T16:49:21.796Z,20.80
2022-09-12T16:54:23.744Z,20.70
2022-09-12T16:59:25.447Z,20.60
2022-09-12T17:04:27.421Z,20.50
2022-09-12T17:09:29.431Z,20.30
2022-09-12T17:14:31.266Z,20.20
2022-09-12T17:19:33.023Z,20.10
2022-09-12T17:24:35.075Z,19.90
2022-09-12T17:29:38.517Z,19.80
2022-09-12T17:34:40.330Z,19.70
2022-09-12T17:39:42.185Z,19.50
2022-09-12T17:44:44.010Z,19.40
2022-09-12T17:49:45.777Z,19.20
2022-09-12T17:54:47.502Z,19.10
2022-09-12T17:59:49.309Z,19.00
2022-09-12T18:04:51.037Z,18.90
2022-09-12T18:09:53.087Z,18.70
2022-09-12T18:14:54.815Z,18.70
2022-09-12T18:19:56.753Z,18.50
2022-09-12T18:24:58.816Z,18.40
2022-09-12T18:30:19.993Z,18.30
2022-09-12T18:35:22.375Z,18.20
2022-09-12T18:40:24.206Z,18.00
2022-09-12T18:45:26.406Z,18.00
2022-09-12T18:50:28.252Z,17.90
2022-09-12T18:55:32.618Z,17.80
2022-09-12T19:00:34.454Z,17.70
2022-09-12T19:05:36.273Z,17.60
2022-09-12T19:10:37.986Z,17.50
2022-09-12T19:15:41.127Z,17.40
2022-09-12T19:20:43.084Z,17.20
2022-09-12T19:25:45.559Z,17.10
2022-09-12T19:30:49.995Z,17.00
2022-09-12T19:35:52.447Z,16.90
2022-09-12T19:41:02.377Z,16.80
2022-09-12T19:46:05.347Z,16.70
2022-09-12T19:51:07.101Z,16.50
2022-09-12T19:56:10.345Z,16.40
2022-09-12T20:01:21.077Z,16.30
2022-09-12T20:06:23.246Z,16.20
2022-09-12T20:11:25.730Z,16.10
2022-09-12T20:16:29.487Z,16.10
2022-09-12T20:21:33.989Z,16.00
2022-09-12T20:26:36.144Z,16.00
2022-09-12T20:31:39.704Z,15.90
2022-09-12T20:36:41.776Z,15.80
2022-09-12T20:41:43.725Z,15.80
2022-09-12T20:46:45.632Z,15.70
2022-09-12T20:51:48.381Z,15.70
2022-09-12T20:56:50.081Z,15.60
2022-09-12T21:01:52.942Z,15.60
2022-09-12T21:06:54.798Z,15.50
2022-09-12T21:11:56.808Z,15.50
2022-09-12T21:16:58.776Z,15.40
2022-09-12T21:22:00.870Z,15.40
2022-09-12T21:27:04.553Z,15.30
2022-09-12T21:32:09.025Z,15.30
2022-09-12T21:37:13.222Z,15.20
2022-09-12T21:42:14.922Z,15.20
2022-09-12T21:47:17.139Z,15.20
2022-09-12T21:52:18.848Z,15.20
2022-09-12T21:57:20.540Z,15.20
2022-09-12T22:02:22.996Z,15.20
2022-09-12T22:07:25.790Z,15.20
2022-09-12T22:12:28.681Z,15.10
2022-09-12T22:17:30.373Z,15.10
2022-09-12T22:22:52.833Z,15.00
2022-09-12T22:27:55.077Z,15.00
2022-09-12T22:32:56.754Z,15.00
2022-09-12T22:37:58.449Z,15.00
2022-09-12T22:43:01.169Z,14.90
2022-09-12T22:48:06.219Z,14.90
2022-09-12T22:53:10.774Z,14.90
2022-09-12T22:58:12.660Z,14.80
2022-09-12T23:03:14.573Z,14.70
2022-09-12T23:08:17.732Z,14.70
2022-09-12T23:13:19.447Z,14.70
2022-09-12T23:18:21.197Z,14.70
2022-09-12T23:23:23.077Z,14.60
2022-09-12T23:28:24.760Z,14.60
2022-09-12T23:33:28.490Z,14.60
2022-09-12T23:38:30.820Z,14.60
2022-09-12T23:43:32.750Z,14.60
2022-09-12T23:48:34.529Z,14.50
2022-09-12T23:53:36.382Z,14.50
2022-09-12T23:58:38.184Z,14.50
